Time;durP1;ratioP1;P1;durP2;ratioP2;P2;SDS_P1;SDS_P2;PMS_P1;PMS_P2;Temp;Humidity;BMP_temperature;BMP_pressure;BME280_temperature;BME280_humidity;BME280_pressure;Samples;Min_cycle;Max_cycle;Signal;HPM_P1;HPM_P2
2022/05/14 00:02:11;;;;;;;13.68;4.75;;;12.00;99.90;;;;;;5050665;28;20067;-65
2022/05/14 00:04:38;;;;;;;10.65;3.70;;;12.00;99.90;;;;;;5046100;28;20041;-66
2022/05/14 00:07:03;;;;;;;14.52;4.65;;;12.00;99.90;;;;;;5042438;28;20055;-65
2022/05/14 00:09:29;;;;;;;13.15;4.45;;;12.00;99.90;;;;;;5062905;28;20061;-65
2022/05/14 00:14:39;;;;;;;12.57;4.40;;;11.90;99.90;;;;;;5063022;28;20052;-65
2022/05/14 00:17:05;;;;;;;11.35;4.93;;;12.10;99.90;;;;;;5064242;28;20044;-65
2022/05/14 00:19:31;;;;;;;11.43;4.30;;;11.90;99.90;;;;;;5050150;28;20045;-65
2022/05/14 00:21:56;;;;;;;14.52;4.00;;;12.00;99.90;;;;;;5045645;28;20053;-65
2022/05/14 00:24:23;;;;;;;10.60;4.35;;;11.90;99.90;;;;;;5064289;28;20076;-65
2022/05/14 00:26:49;;;;;;;15.43;4.57;;;11.80;99.90;;;;;;5064379;28;20128;-65
2022/05/14 00:29:15;;;;;;;10.82;4.38;;;11.70;99.90;;;;;;5040908;28;20592;-65
2022/05/14 00:31:41;;;;;;;13.25;4.70;;;11.80;99.90;;;;;;5061860;28;20460;-65
2022/05/14 00:34:07;;;;;;;13.93;4.80;;;11.80;99.90;;;;;;5063021;28;20048;-65
2022/05/14 00:36:33;;;;;;;11.05;4.47;;;11.80;99.90;;;;;;5062848;28;20045;-66
2022/05/14 00:38:59;;;;;;;10.02;3.88;;;11.70;99.90;;;;;;5044421;28;20128;-65
2022/05/14 00:41:27;;;;;;;10.40;4.18;;;11.70;99.90;;;;;;5062842;28;20519;-65
2022/05/14 00:43:58;;;;;;;9.30;4.13;;;11.60;99.90;;;;;;5047660;28;20040;-65
2022/05/14 00:46:48;;;;;;;11.45;4.20;;;11.60;99.90;;;;;;5065323;28;20076;-65
2022/05/14 00:49:18;;;;;;;11.80;4.05;;;11.70;99.90;;;;;;5067557;28;20124;-65
2022/05/14 00:51:45;;;;;;;12.63;4.10;;;11.70;99.90;;;;;;5071720;28;20045;-65
2022/05/14 00:54:25;;;;;;;10.82;4.10;;;11.70;99.90;;;;;;5035807;28;20609;-65
2022/05/14 00:56:56;;;;;;;13.60;4.47;;;11.70;99.90;;;;;;5037751;28;20054;-65
2022/05/14 00:59:24;;;;;;;10.00;4.22;;;11.80;99.90;;;;;;5047874;28;20051;-65
2022/05/14 01:01:50;;;;;;;14.18;4.43;;;11.80;99.90;;;;;;5066530;28;20041;-65
2022/05/14 01:04:18;;;;;;;10.73;4.50;;;11.80;99.90;;;;;;5050341;28;20080;-65
2022/05/14 01:06:55;;;;;;;12.68;4.22;;;11.70;99.90;;;;;;5052589;28;20229;-65
2022/05/14 01:09:21;;;;;;;10.38;4.25;;;11.70;99.90;;;;;;5066401;28;20053;-65
2022/05/14 01:11:50;;;;;;;14.00;4.93;;;11.70;99.90;;;;;;5048199;28;20045;-65
2022/05/14 01:14:16;;;;;;;12.48;4.65;;;11.70;99.90;;;;;;5065613;28;20048;-65
2022/05/14 01:16:42;;;;;;;13.93;4.00;;;11.70;99.90;;;;;;5049163;28;20048;-65
2022/05/14 01:19:07;;;;;;;16.75;4.00;;;11.70;99.90;;;;;;5049059;28;20075;-65
2022/05/14 01:21:48;;;;;;;8.60;4.22;;;11.80;99.90;;;;;;5048638;28;20045;-65
2022/05/14 01:27:08;;;;;;;11.05;4.10;;;11.80;99.90;;;;;;5048963;28;20099;-66
2022/05/14 01:29:34;;;;;;;16.48;4.35;;;11.80;99.90;;;;;;5068024;28;20147;-65
2022/05/14 01:32:00;;;;;;;13.65;4.30;;;11.70;99.90;;;;;;5049119;28;20053;-65
2022/05/14 01:34:32;;;;;;;10.30;4.13;;;11.80;99.90;;;;;;5067864;28;20084;-65
2022/05/14 01:36:58;;;;;;;12.70;3.80;;;11.80;99.90;;;;;;5041301;28;20135;-65
2022/05/14 01:39:25;;;;;;;13.48;4.85;;;11.80;99.90;;;;;;5049760;28;20053;-65
2022/05/14 01:41:51;;;;;;;11.35;4.22;;;11.70;99.90;;;;;;5049200;28;20415;-65
2022/05/14 01:44:17;;;;;;;14.05;4.35;;;11.80;99.90;;;;;;5064440;28;20048;-65
2022/05/14 01:46:43;;;;;;;11.32;3.83;;;11.80;99.90;;;;;;5066303;28;20053;-65
2022/05/14 01:49:09;;;;;;;12.02;4.50;;;11.80;99.90;;;;;;5067073;28;20036;-65
2022/05/14 01:51:36;;;;;;;12.07;4.60;;;11.70;99.90;;;;;;5045252;28;20052;-65
2022/05/14 01:54:02;;;;;;;13.60;4.45;;;11.70;99.90;;;;;;5063818;28;20469;-65
2022/05/14 01:56:28;;;;;;;11.25;4.60;;;11.70;99.90;;;;;;5049254;28;20118;-65
2022/05/14 01:58:54;;;;;;;14.52;4.93;;;11.70;99.90;;;;;;5059081;28;20104;-65
2022/05/14 02:01:21;;;;;;;16.50;4.28;;;11.70;99.90;;;;;;5046861;28;20053;-65
2022/05/14 02:03:56;;;;;;;11.27;4.53;;;11.70;99.90;;;;;;5063610;28;20101;-65
2022/05/14 02:06:25;;;;;;;13.77;4.93;;;11.60;99.90;;;;;;5050100;28;20409;-65
2022/05/14 02:08:51;;;;;;;14.37;5.07;;;11.60;99.90;;;;;;5034099;28;20040;-65
2022/05/14 02:11:18;;;;;;;13.07;4.75;;;11.60;99.90;;;;;;5064273;28;20139;-65
2022/05/14 02:13:46;;;;;;;14.30;4.78;;;11.50;99.90;;;;;;5064133;28;20048;-65
2022/05/14 02:16:11;;;;;;;14.48;5.30;;;11.30;99.90;;;;;;5044197;28;20050;-65
2022/05/14 02:18:37;;;;;;;13.30;4.88;;;11.20;99.90;;;;;;5046933;28;20067;-65
2022/05/14 02:21:05;;;;;;;19.95;5.95;;;11.10;99.90;;;;;;5065835;28;20048;-65
2022/05/14 02:23:32;;;;;;;17.10;6.25;;;11.10;99.90;;;;;;5046005;28;20125;-65
2022/05/14 02:25:57;;;;;;;14.43;4.72;;;11.10;99.90;;;;;;5048837;28;20064;-65
2022/05/14 02:28:23;;;;;;;17.70;5.78;;;11.20;99.90;;;;;;5048886;28;20037;-65
2022/05/14 02:30:49;;;;;;;19.63;5.63;;;11.10;99.90;;;;;;5057808;28;20068;-65
2022/05/14 02:33:16;;;;;;;16.50;5.57;;;11.10;99.90;;;;;;5044882;28;20119;-65
2022/05/14 02:35:43;;;;;;;16.52;5.22;;;11.10;99.90;;;;;;5052276;28;20109;-65
2022/05/14 02:38:09;;;;;;;11.65;4.65;;;11.10;99.90;;;;;;5042293;28;20112;-65
2022/05/14 02:40:35;;;;;;;11.80;4.90;;;10.90;99.90;;;;;;5045938;28;20053;-65
2022/05/14 02:43:01;;;;;;;16.63;7.10;;;10.90;99.90;;;;;;5051146;28;20045;-65
2022/05/14 02:45:27;;;;;;;12.70;5.07;;;10.70;99.90;;;;;;5066492;28;20076;-65
2022/05/14 02:47:53;;;;;;;13.95;5.00;;;10.60;99.90;;;;;;5046565;28;20076;-65
2022/05/14 02:50:19;;;;;;;12.40;5.03;;;10.60;99.90;;;;;;5029233;28;20053;-65
2022/05/14 02:52:45;;;;;;;14.95;5.50;;;10.60;99.90;;;;;;5043316;28;20464;-65
2022/05/14 02:55:11;;;;;;;17.35;5.88;;;10.60;99.90;;;;;;5065257;28;20049;-65
2022/05/14 02:57:37;;;;;;;14.55;5.20;;;10.50;99.90;;;;;;5045948;28;20043;-65
2022/05/14 03:00:10;;;;;;;18.23;6.28;;;10.50;99.90;;;;;;5045113;28;20119;-65
2022/05/14 03:02:36;;;;;;;13.98;6.03;;;10.50;99.90;;;;;;5049245;28;20053;-65
2022/05/14 03:05:03;;;;;;;19.05;6.55;;;10.50;99.90;;;;;;5046805;28;20091;-65
2022/05/14 03:07:29;;;;;;;18.42;6.15;;;10.50;99.90;;;;;;5047165;28;20512;-65
2022/05/14 03:09:55;;;;;;;13.25;5.38;;;10.60;99.90;;;;;;5013974;28;20056;-65
2022/05/14 03:12:22;;;;;;;11.70;4.95;;;10.40;99.90;;;;;;5045292;28;20049;-65
2022/05/14 03:14:49;;;;;;;15.40;5.82;;;10.70;99.90;;;;;;5046796;28;20566;-65
2022/05/14 03:17:15;;;;;;;13.65;6.00;;;10.50;99.90;;;;;;5070580;28;20564;-65
2022/05/14 03:19:41;;;;;;;12.93;6.40;;;10.40;99.90;;;;;;5047765;28;20044;-65
2022/05/14 03:22:07;;;;;;;15.02;5.57;;;10.40;99.90;;;;;;5044760;28;20109;-65
2022/05/14 03:24:34;;;;;;;12.60;5.53;;;10.30;99.90;;;;;;5051174;28;20049;-65
2022/05/14 03:27:01;;;;;;;14.45;6.00;;;10.40;99.90;;;;;;5058817;28;20044;-65
2022/05/14 03:29:27;;;;;;;17.02;5.53;;;10.40;99.90;;;;;;5065298;28;20033;-65
2022/05/14 03:31:52;;;;;;;13.32;6.63;;;10.30;99.90;;;;;;5063806;28;20051;-65
2022/05/14 03:34:18;;;;;;;17.83;6.05;;;10.20;99.90;;;;;;5063778;28;20060;-65
2022/05/14 03:36:44;;;;;;;12.60;5.70;;;10.30;99.90;;;;;;5044582;28;20256;-65
2022/05/14 03:39:09;;;;;;;15.13;5.72;;;10.30;99.90;;;;;;5063590;28;20050;-65
2022/05/14 03:41:35;;;;;;;14.77;5.85;;;10.30;99.90;;;;;;5037668;28;20050;-65
2022/05/14 03:44:02;;;;;;;12.20;4.93;;;10.20;99.90;;;;;;5049592;28;20120;-65
2022/05/14 03:46:27;;;;;;;14.88;6.00;;;10.10;99.90;;;;;;5030358;28;20045;-65
2022/05/14 03:48:53;;;;;;;17.58;6.35;;;9.90;99.90;;;;;;5030200;28;20145;-65
2022/05/14 03:51:19;;;;;;;16.48;6.90;;;9.90;99.90;;;;;;5031680;28;20043;-65
2022/05/14 03:53:47;;;;;;;14.38;7.13;;;10.00;99.90;;;;;;5049653;28;20120;-65
2022/05/14 03:56:13;;;;;;;22.35;7.22;;;10.00;99.90;;;;;;5029066;28;20049;-65
2022/05/14 03:58:39;;;;;;;15.60;6.53;;;9.80;99.90;;;;;;5031745;28;20129;-65
2022/05/14 04:01:05;;;;;;;15.88;6.80;;;9.80;99.90;;;;;;5030401;28;20069;-65
2022/05/14 04:03:33;;;;;;;18.10;6.82;;;9.90;99.90;;;;;;5041732;28;20393;-65
2022/05/14 04:06:00;;;;;;;18.13;6.53;;;9.70;99.90;;;;;;5045667;28;20045;-65
2022/05/14 04:08:26;;;;;;;20.40;7.20;;;9.80;99.90;;;;;;5041955;28;20493;-65
2022/05/14 04:10:52;;;;;;;24.63;7.95;;;9.90;99.90;;;;;;5042000;28;20057;-65
2022/05/14 04:13:17;;;;;;;24.23;7.30;;;10.00;99.90;;;;;;5047564;28;20044;-65
2022/05/14 04:15:43;;;;;;;20.95;7.50;;;9.80;99.90;;;;;;5050106;28;20045;-65
2022/05/14 04:18:09;;;;;;;27.08;8.15;;;9.80;99.90;;;;;;5031892;28;20048;-65
2022/05/14 04:20:36;;;;;;;22.58;9.18;;;10.00;99.90;;;;;;5033394;28;20043;-65
2022/05/14 04:23:03;;;;;;;25.73;8.23;;;10.10;99.90;;;;;;5045409;28;20128;-65
2022/05/14 04:25:29;;;;;;;19.08;7.90;;;10.10;99.90;;;;;;5025150;28;20044;-65
2022/05/14 04:27:54;;;;;;;18.70;7.90;;;10.10;99.90;;;;;;5030656;28;20048;-65
2022/05/14 04:30:20;;;;;;;24.30;8.00;;;10.40;99.90;;;;;;5046805;28;20048;-65
2022/05/14 04:32:46;;;;;;;24.55;8.52;;;10.20;99.90;;;;;;5046899;28;20044;-65
2022/05/14 04:35:15;;;;;;;26.75;10.07;;;10.20;99.90;;;;;;5045762;28;20109;-65
2022/05/14 04:37:40;;;;;;;23.55;9.15;;;10.30;99.90;;;;;;5049618;28;20056;-65
2022/05/14 04:40:09;;;;;;;22.30;8.43;;;10.30;99.90;;;;;;5028668;28;20045;-65
2022/05/14 04:42:38;;;;;;;22.85;8.43;;;10.30;99.90;;;;;;5063222;28;20045;-65
2022/05/14 04:45:08;;;;;;;28.02;10.00;;;10.40;99.90;;;;;;5049930;28;20049;-65
2022/05/14 04:47:34;;;;;;;26.73;9.25;;;10.30;99.90;;;;;;5026725;28;20281;-65
2022/05/14 04:50:00;;;;;;;27.85;9.27;;;10.30;99.90;;;;;;5058172;28;20041;-65
2022/05/14 04:52:26;;;;;;;24.67;9.90;;;10.40;99.90;;;;;;5045552;28;20097;-65
2022/05/14 04:54:52;;;;;;;23.42;10.13;;;10.50;99.90;;;;;;5063453;28;20109;-65
2022/05/14 04:57:17;;;;;;;24.95;9.18;;;10.40;99.90;;;;;;5062030;28;20125;-65
2022/05/14 04:59:43;;;;;;;26.63;9.95;;;10.50;99.90;;;;;;5044893;28;20049;-65
2022/05/14 05:04:54;;;;;;;29.63;11.00;;;10.50;99.90;;;;;;5049134;28;20128;-65
2022/05/14 05:07:20;;;;;;;22.13;10.60;;;10.60;99.90;;;;;;5071905;28;20079;-65
2022/05/14 05:09:46;;;;;;;32.45;9.73;;;10.70;99.90;;;;;;5059780;28;20092;-65
2022/05/14 05:12:12;;;;;;;34.33;10.32;;;10.80;99.90;;;;;;5059262;28;20084;-65
2022/05/14 05:14:38;;;;;;;28.70;9.95;;;10.90;99.90;;;;;;5056155;28;20041;-65
2022/05/14 05:17:04;;;;;;;30.02;10.25;;;10.90;99.90;;;;;;5047301;28;20101;-65
2022/05/14 05:19:30;;;;;;;23.27;10.30;;;10.90;99.90;;;;;;5048969;28;20049;-65
2022/05/14 05:21:56;;;;;;;31.50;10.88;;;11.00;99.90;;;;;;5074091;28;20361;-65
2022/05/14 05:24:22;;;;;;;28.17;9.98;;;11.10;99.90;;;;;;5052871;28;20101;-65
2022/05/14 05:26:48;;;;;;;35.47;11.25;;;11.10;99.90;;;;;;5051270;28;20048;-65
2022/05/14 05:29:14;;;;;;;34.03;10.73;;;11.20;99.90;;;;;;5063715;28;20052;-65
2022/05/14 05:31:40;;;;;;;36.13;11.98;;;11.30;99.90;;;;;;5049584;28;20052;-65
2022/05/14 05:34:05;;;;;;;33.75;11.70;;;11.40;99.90;;;;;;5053963;28;20040;-65
2022/05/14 05:36:32;;;;;;;31.40;11.07;;;11.50;99.90;;;;;;5054893;28;20052;-65
2022/05/14 05:38:58;;;;;;;28.90;10.80;;;11.60;99.90;;;;;;5048143;28;20087;-65
2022/05/14 05:41:24;;;;;;;24.88;10.40;;;11.60;99.90;;;;;;5050352;28;20101;-65
2022/05/14 05:43:49;;;;;;;25.00;10.98;;;11.70;99.90;;;;;;5049314;28;20041;-65
2022/05/14 05:46:16;;;;;;;24.73;10.68;;;11.90;99.90;;;;;;5050263;28;20068;-66
2022/05/14 05:48:42;;;;;;;31.60;11.65;;;11.90;99.90;;;;;;5032759;28;20102;-66
2022/05/14 05:51:09;;;;;;;26.83;10.02;;;11.90;99.90;;;;;;5063367;28;20257;-65
2022/05/14 05:59:05;;;;;;;28.58;9.70;;;12.10;99.90;;;;;;5045312;28;20060;-65
2022/05/14 06:01:31;;;;;;;28.05;10.10;;;12.20;99.90;;;;;;5061000;28;20045;-65
2022/05/14 06:03:57;;;;;;;33.40;10.35;;;12.30;99.90;;;;;;5031611;28;20048;-65
2022/05/14 06:06:23;;;;;;;26.23;10.30;;;12.30;99.90;;;;;;5054002;28;20041;-65
2022/05/14 06:08:50;;;;;;;32.65;9.98;;;12.50;99.90;;;;;;5047381;28;20103;-65
2022/05/14 06:11:17;;;;;;;28.48;10.15;;;12.40;99.90;;;;;;5068870;28;20048;-65
2022/05/14 06:13:43;;;;;;;28.73;9.02;;;12.40;99.90;;;;;;5054172;28;20042;-65
2022/05/14 06:16:10;;;;;;;35.88;9.80;;;12.60;99.90;;;;;;5045944;28;20045;-65
2022/05/14 06:18:37;;;;;;;24.23;9.20;;;12.70;99.90;;;;;;5049830;28;20044;-65
2022/05/14 06:21:06;;;;;;;36.40;9.88;;;12.60;99.90;;;;;;5079178;28;20032;-66
2022/05/14 06:23:33;;;;;;;30.85;8.93;;;12.70;99.90;;;;;;5068988;28;20083;-65
2022/05/14 06:25:58;;;;;;;26.92;7.78;;;12.90;99.90;;;;;;5042800;28;20211;-65
2022/05/14 06:28:24;;;;;;;27.13;7.90;;;13.10;99.90;;;;;;5031481;28;20505;-65
2022/05/14 06:30:50;;;;;;;26.20;10.57;;;13.20;99.90;;;;;;5020244;28;20311;-65
2022/05/14 06:33:17;;;;;;;27.02;7.55;;;13.20;99.90;;;;;;5068246;28;20056;-66
2022/05/14 06:35:44;;;;;;;25.75;7.43;;;13.40;99.90;;;;;;5063312;28;20044;-67
2022/05/14 06:38:09;;;;;;;28.33;7.82;;;13.50;99.90;;;;;;5068851;28;20052;-66
2022/05/14 06:40:37;;;;;;;29.70;7.45;;;13.60;99.90;;;;;;5066674;28;20647;-66
2022/05/14 06:43:03;;;;;;;23.17;6.28;;;13.70;99.90;;;;;;5070960;28;20405;-66
2022/05/14 06:45:29;;;;;;;22.60;6.65;;;13.90;99.90;;;;;;5067915;28;20052;-66
2022/05/14 06:47:55;;;;;;;30.95;7.07;;;14.10;99.90;;;;;;5060616;28;20106;-66
2022/05/14 06:50:21;;;;;;;24.45;5.78;;;14.10;99.90;;;;;;5064193;28;20032;-66
2022/05/14 06:52:50;;;;;;;22.15;6.72;;;14.20;99.90;;;;;;5067212;28;20044;-66
2022/05/14 06:55:20;;;;;;;25.23;5.57;;;14.40;99.90;;;;;;5066348;28;20040;-66
2022/05/14 06:57:48;;;;;;;28.50;6.15;;;14.40;99.90;;;;;;5067905;28;20040;-66
2022/05/14 07:00:14;;;;;;;26.15;6.50;;;14.40;99.90;;;;;;5064357;28;20044;-66
2022/05/14 07:02:41;;;;;;;21.42;4.63;;;14.50;99.90;;;;;;5053553;28;20048;-67
2022/05/14 07:07:53;;;;;;;18.63;4.70;;;14.60;99.90;;;;;;5069950;28;20055;-67
2022/05/14 07:10:18;;;;;;;24.63;6.25;;;14.80;99.90;;;;;;5082710;28;20135;-66
2022/05/14 07:12:44;;;;;;;26.25;5.72;;;14.80;99.90;;;;;;5067545;28;20048;-66
2022/05/14 07:15:12;;;;;;;19.83;6.30;;;14.90;99.90;;;;;;5050358;28;20041;-67
2022/05/14 07:17:38;;;;;;;27.23;6.40;;;15.00;99.90;;;;;;5066171;28;20083;-69
2022/05/14 07:20:05;;;;;;;23.92;6.20;;;15.00;99.90;;;;;;5068006;28;20054;-66
2022/05/14 07:22:31;;;;;;;15.48;7.10;;;15.10;99.90;;;;;;5055369;28;21154;-67
2022/05/14 07:24:57;;;;;;;23.42;6.18;;;15.20;99.90;;;;;;5043493;28;20627;-67
2022/05/14 07:27:22;;;;;;;23.20;4.78;;;15.10;99.90;;;;;;5034709;28;20063;-66
2022/05/14 07:29:48;;;;;;;17.88;4.97;;;15.20;99.90;;;;;;5018127;28;20041;-67
2022/05/14 07:32:17;;;;;;;23.27;6.95;;;15.30;99.90;;;;;;5018503;28;20206;-66
2022/05/14 07:34:43;;;;;;;29.23;6.43;;;15.30;99.90;;;;;;5017636;28;20053;-67
2022/05/14 07:37:17;;;;;;;19.65;6.15;;;15.30;99.90;;;;;;5011367;28;20054;-67
2022/05/14 07:39:49;;;;;;;26.55;6.07;;;15.40;99.90;;;;;;5044200;28;20040;-66
2022/05/14 07:42:22;;;;;;;20.73;4.82;;;15.40;99.90;;;;;;5056159;28;20044;-66
2022/05/14 07:44:51;;;;;;;21.50;5.32;;;15.40;99.90;;;;;;5064826;28;20051;-65
2022/05/14 07:47:17;;;;;;;18.17;5.43;;;15.40;99.90;;;;;;5062597;28;20052;-66
2022/05/14 07:49:45;;;;;;;19.00;6.15;;;15.50;99.90;;;;;;5059683;28;20054;-65
2022/05/14 07:52:12;;;;;;;22.13;6.13;;;15.50;99.90;;;;;;5059656;28;20052;-65
2022/05/14 07:54:39;;;;;;;19.75;5.60;;;15.50;99.90;;;;;;5032947;28;20045;-66
2022/05/14 07:57:06;;;;;;;21.80;5.57;;;15.60;99.90;;;;;;5037019;28;20540;-66
2022/05/14 07:59:35;;;;;;;19.67;5.38;;;15.70;99.90;;;;;;5028095;28;20597;-66
2022/05/14 08:02:05;;;;;;;20.88;6.05;;;15.80;99.90;;;;;;5038523;28;20060;-66
2022/05/14 08:04:32;;;;;;;15.65;5.75;;;15.70;99.90;;;;;;5018096;28;20076;-66
2022/05/14 08:06:57;;;;;;;21.00;5.50;;;15.90;99.90;;;;;;5014125;28;20473;-66
2022/05/14 08:09:23;;;;;;;15.90;5.35;;;16.00;99.90;;;;;;5032778;28;20064;-66
2022/05/14 08:11:49;;;;;;;21.55;5.65;;;16.10;99.90;;;;;;5039164;28;20091;-66
2022/05/14 08:14:15;;;;;;;20.38;4.93;;;16.00;99.90;;;;;;5017920;28;20544;-66
2022/05/14 08:16:41;;;;;;;18.83;5.93;;;16.10;99.90;;;;;;5030792;28;20045;-66
2022/05/14 08:19:07;;;;;;;17.70;5.93;;;16.00;99.90;;;;;;5044195;28;20072;-66
2022/05/14 08:24:34;;;;;;;24.45;6.47;;;16.10;99.90;;;;;;5029394;28;20052;-66
2022/05/14 08:27:06;;;;;;;19.13;5.75;;;16.20;99.90;;;;;;5033900;28;20096;-65
2022/05/14 08:29:32;;;;;;;21.52;5.95;;;16.30;99.90;;;;;;5015510;28;20164;-65
2022/05/14 08:31:58;;;;;;;17.23;5.68;;;16.40;99.90;;;;;;5025276;28;20079;-66
2022/05/14 08:34:23;;;;;;;20.42;5.25;;;16.40;99.90;;;;;;5066373;28;20651;-66
2022/05/14 08:36:49;;;;;;;23.55;6.20;;;16.40;99.90;;;;;;5058192;28;20065;-66
2022/05/14 08:39:16;;;;;;;16.40;5.10;;;16.40;99.90;;;;;;5030593;28;20053;-67
2022/05/14 08:41:44;;;;;;;20.45;5.40;;;16.30;99.90;;;;;;5063625;28;20079;-66
2022/05/14 08:44:21;;;;;;;23.90;6.80;;;16.40;99.90;;;;;;5047693;28;20118;-67
2022/05/14 08:46:55;;;;;;;17.92;5.65;;;16.50;99.90;;;;;;5058954;28;20044;-67
2022/05/14 08:49:45;;;;;;;16.17;5.28;;;16.70;99.90;;;;;;5021099;28;20053;-67
2022/05/14 08:52:24;;;;;;;21.08;5.85;;;17.00;99.90;;;;;;5054085;28;20052;-66
2022/05/14 08:54:57;;;;;;;22.58;5.35;;;16.90;99.90;;;;;;5049286;28;20045;-67
2022/05/14 08:57:50;;;;;;;18.95;5.35;;;16.90;99.90;;;;;;5083767;28;20063;-67
2022/05/14 09:00:18;;;;;;;21.70;5.90;;;17.10;99.90;;;;;;5048323;28;20088;-67
2022/05/14 09:02:47;;;;;;;21.92;6.13;;;17.30;99.90;;;;;;5058164;28;20135;-67
2022/05/14 09:05:20;;;;;;;18.07;4.87;;;17.40;99.90;;;;;;5053849;28;20079;-67
2022/05/14 09:07:46;;;;;;;18.77;5.15;;;17.40;99.90;;;;;;5062686;28;20715;-67
2022/05/14 09:10:25;;;;;;;16.75;5.50;;;17.40;99.90;;;;;;5039734;28;20059;-66
2022/05/14 09:12:59;;;;;;;21.30;5.38;;;17.30;99.90;;;;;;5043184;28;20037;-66
2022/05/14 09:15:32;;;;;;;20.67;6.53;;;17.20;99.90;;;;;;5056610;28;20058;-65
2022/05/14 09:18:09;;;;;;;22.35;6.32;;;17.30;99.90;;;;;;5063331;28;20559;-65
2022/05/14 09:20:49;;;;;;;19.13;5.35;;;17.40;99.90;;;;;;5048442;28;20060;-65
2022/05/14 09:23:34;;;;;;;27.77;6.15;;;17.40;99.90;;;;;;5064317;28;20044;-65
2022/05/14 09:26:34;;;;;;;18.73;6.55;;;17.50;99.90;;;;;;5050182;28;20118;-65
2022/05/14 09:29:12;;;;;;;;;;;17.60;99.90;;;;;;5031817;28;20065;-66
2022/05/14 09:31:59;;;;;;;23.88;6.18;;;17.50;99.90;;;;;;5055822;28;19951;-64
2022/05/14 09:34:27;;;;;;;20.67;6.00;;;17.40;99.90;;;;;;5057077;28;20140;-65
2022/05/14 09:37:00;;;;;;;17.02;6.30;;;17.50;99.90;;;;;;5059927;28;20059;-66
2022/05/14 09:39:26;;;;;;;18.15;5.60;;;17.40;99.90;;;;;;5067736;28;20041;-65
2022/05/14 09:41:55;;;;;;;23.58;6.68;;;17.40;99.90;;;;;;5055247;28;20614;-64
2022/05/14 09:44:24;;;;;;;;;;;17.40;99.90;;;;;;5049049;28;20051;-64
2022/05/14 09:46:52;;;;;;;16.38;4.78;;;17.50;99.90;;;;;;5061802;28;19977;-64
2022/05/14 09:49:25;;;;;;;21.92;5.75;;;17.70;99.90;;;;;;5054161;28;20045;-63
2022/05/14 09:52:00;;;;;;;22.52;6.07;;;17.80;99.90;;;;;;5061549;28;20040;-63
2022/05/14 09:54:34;;;;;;;18.60;6.03;;;18.00;99.90;;;;;;5048724;28;20079;-63
2022/05/14 09:57:19;;;;;;;24.23;7.22;;;18.10;99.90;;;;;;5058202;28;20121;-63
2022/05/14 09:59:58;;;;;;;22.73;6.38;;;17.80;99.90;;;;;;5049720;28;20110;-63
2022/05/14 10:02:51;;;;;;;17.50;5.55;;;17.90;99.90;;;;;;5060293;28;20361;-64
2022/05/14 10:05:34;;;;;;;18.33;5.57;;;18.00;99.90;;;;;;5054921;28;20107;-64
2022/05/14 10:08:21;;;;;;;19.10;4.72;;;18.50;99.90;;;;;;5071121;28;20051;-64
2022/05/14 10:11:17;;;;;;;19.33;4.80;;;18.40;99.90;;;;;;5055008;28;20051;-64
2022/05/14 10:14:04;;;;;;;17.35;5.15;;;18.30;99.90;;;;;;5069938;28;20537;-64
2022/05/14 10:16:34;;;;;;;16.73;5.15;;;18.40;99.90;;;;;;5032302;28;20633;-64
2022/05/14 10:19:32;;;;;;;16.58;5.65;;;18.60;99.90;;;;;;5056609;28;20058;-66
2022/05/14 10:29:09;;;;;;;18.70;5.72;;;18.40;99.90;;;;;;4919012;29;20285;-64
2022/05/14 10:32:17;;;;;;;18.98;5.28;;;18.70;99.90;;;;;;4896812;29;20351;-65
2022/05/14 10:35:00;;;;;;;44.13;7.18;;;18.60;99.90;;;;;;4897693;29;20064;-65
2022/05/14 10:37:45;;;;;;;17.75;4.93;;;18.50;99.90;;;;;;4858257;29;20404;-64
2022/05/14 10:40:20;;;;;;;22.40;5.65;;;18.40;99.90;;;;;;4913104;29;20650;-64
2022/05/14 10:42:57;;;;;;;24.23;6.15;;;18.50;99.90;;;;;;4904296;29;20071;-64
2022/05/14 10:45:34;;;;;;;16.75;5.35;;;18.40;99.90;;;;;;4910633;29;20118;-64
2022/05/14 10:48:11;;;;;;;18.17;5.95;;;18.40;99.90;;;;;;4901766;29;20064;-64
2022/05/14 10:50:36;;;;;;;19.08;5.60;;;18.80;99.90;;;;;;4907221;29;20119;-64
2022/05/14 10:53:08;;;;;;;20.05;5.22;;;19.00;99.90;;;;;;4900518;29;20083;-64
2022/05/14 10:55:45;;;;;;;22.52;5.03;;;19.10;99.90;;;;;;4921324;29;20066;-64
2022/05/14 10:58:35;;;;;;;17.85;5.07;;;19.00;99.90;;;;;;4925531;28;20074;-64
2022/05/14 11:01:03;;;;;;;16.90;5.72;;;18.90;99.90;;;;;;4971348;28;20080;-64
2022/05/14 11:03:31;;;;;;;18.42;4.88;;;18.70;99.90;;;;;;5015290;28;20056;-64
2022/05/14 11:06:02;;;;;;;17.73;4.82;;;18.70;99.90;;;;;;4983633;28;20050;-64
2022/05/14 11:08:38;;;;;;;18.73;5.07;;;18.70;99.90;;;;;;5032160;28;20608;-65
2022/05/14 11:11:15;;;;;;;20.60;5.88;;;18.90;99.90;;;;;;5033132;28;20084;-64
2022/05/14 11:13:54;;;;;;;17.20;5.53;;;19.10;99.90;;;;;;5056204;28;20076;-64
2022/05/14 11:16:19;;;;;;;15.02;5.47;;;19.00;99.90;;;;;;5020561;28;20635;-64
2022/05/14 11:18:48;;;;;;;17.73;5.40;;;19.00;99.90;;;;;;5027319;28;20049;-64
2022/05/14 11:21:15;;;;;;;17.73;5.55;;;18.90;99.90;;;;;;5036693;28;20056;-64
2022/05/14 11:23:59;;;;;;;23.52;5.47;;;19.00;99.90;;;;;;5067821;28;20045;-64
2022/05/14 11:26:26;;;;;;;22.73;5.80;;;19.20;99.90;;;;;;5063752;28;20116;-64
2022/05/14 11:28:58;;;;;;;18.55;5.13;;;19.40;99.90;;;;;;5051763;28;20393;-64
2022/05/14 11:31:27;;;;;;;19.50;5.95;;;19.50;99.90;;;;;;5029737;28;20044;-64
2022/05/14 11:33:57;;;;;;;13.70;4.32;;;19.50;99.90;;;;;;5075357;28;20048;-64
2022/05/14 11:36:48;;;;;;;20.73;5.28;;;19.70;99.90;;;;;;5060540;28;20181;-64
2022/05/14 11:39:20;;;;;;;21.30;6.20;;;19.70;99.90;;;;;;5059322;28;20036;-64
2022/05/14 11:41:46;;;;;;;17.45;5.32;;;19.70;99.90;;;;;;5060654;28;20099;-64
2022/05/14 11:44:12;;;;;;;15.93;6.20;;;19.80;99.90;;;;;;5055910;28;20044;-64
2022/05/14 11:46:49;;;;;;;18.02;5.97;;;19.90;99.90;;;;;;5066875;28;20076;-64
2022/05/14 11:49:41;;;;;;;51.00;6.95;;;20.10;99.90;;;;;;5060709;28;20044;-64
2022/05/14 11:52:07;;;;;;;17.65;4.85;;;20.00;99.90;;;;;;5062393;28;20123;-64
2022/05/14 11:55:01;;;;;;;19.60;4.43;;;20.10;99.90;;;;;;5049692;28;20049;-64
2022/05/14 11:57:37;;;;;;;33.33;6.22;;;20.00;99.90;;;;;;5036034;28;20119;-64
2022/05/14 12:00:08;;;;;;;57.67;6.68;;;20.20;99.90;;;;;;5057578;28;20047;-64
2022/05/14 12:02:47;;;;;;;20.40;5.50;;;20.00;99.90;;;;;;5046549;28;20064;-65
2022/05/14 12:05:45;;;;;;;21.15;6.05;;;20.10;99.90;;;;;;5053715;28;20063;-64
2022/05/14 12:08:29;;;;;;;22.77;5.25;;;20.20;99.90;;;;;;5061795;28;20083;-65
2022/05/14 12:11:21;;;;;;;16.92;5.53;;;20.40;99.90;;;;;;5058287;28;20045;-64
2022/05/14 12:13:55;;;;;;;15.55;4.93;;;20.40;99.90;;;;;;5029118;28;20068;-64
2022/05/14 12:16:30;;;;;;;16.40;6.10;;;20.40;99.90;;;;;;5074147;28;20408;-64
2022/05/14 12:18:56;;;;;;;22.75;5.75;;;20.40;99.90;;;;;;5030711;28;20036;-65
2022/05/14 12:21:23;;;;;;;26.30;5.75;;;20.50;99.90;;;;;;5047233;28;20050;-65
2022/05/14 12:23:49;;;;;;;20.85;5.97;;;20.50;99.90;;;;;;5068450;28;20436;-64
2022/05/14 12:26:26;;;;;;;21.80;5.85;;;20.40;99.90;;;;;;5060532;28;20563;-64
2022/05/14 12:29:03;;;;;;;20.05;5.65;;;20.40;99.90;;;;;;5040874;28;20056;-64
2022/05/14 12:34:16;;;;;;;28.40;5.78;;;20.60;99.90;;;;;;5050168;28;20087;-64
2022/05/14 12:36:51;;;;;;;19.02;6.50;;;20.60;99.90;;;;;;5041628;28;20516;-64
2022/05/14 12:39:20;;;;;;;16.58;4.85;;;20.50;99.90;;;;;;5059962;28;20041;-65
2022/05/14 12:41:50;;;;;;;18.08;5.82;;;20.40;99.90;;;;;;5070594;28;20044;-64
2022/05/14 12:44:25;;;;;;;18.40;5.28;;;20.20;99.90;;;;;;5073484;28;20044;-64
2022/05/14 12:46:56;;;;;;;17.27;4.80;;;19.90;99.90;;;;;;5053475;28;20121;-65
2022/05/14 12:49:33;;;;;;;20.75;5.53;;;20.10;99.90;;;;;;5076460;28;20127;-64
2022/05/14 12:52:11;;;;;;;19.35;5.57;;;20.40;99.50;;;;;;5065611;28;20129;-64
2022/05/14 12:54:53;;;;;;;20.20;6.10;;;20.30;99.80;;;;;;5071674;28;20244;-64
2022/05/14 12:57:20;;;;;;;18.92;6.65;;;20.10;99.90;;;;;;5066854;28;20095;-64
2022/05/14 12:59:45;;;;;;;19.73;5.10;;;19.90;99.90;;;;;;5054255;28;20051;-64
2022/05/14 13:02:58;;;;;;;21.25;6.03;;;20.00;99.90;;;;;;5055335;28;20100;-65
2022/05/14 13:05:32;;;;;;;19.67;5.50;;;20.30;99.90;;;;;;4997378;28;20407;-64
2022/05/14 13:08:13;;;;;;;30.52;6.18;;;20.30;99.90;;;;;;5021920;28;20049;-65
2022/05/14 13:10:44;;;;;;;21.42;6.03;;;20.30;99.90;;;;;;5011020;28;20042;-65
2022/05/14 13:13:10;;;;;;;19.67;5.65;;;20.30;99.90;;;;;;4986753;28;20267;-65
2022/05/14 13:15:42;;;;;;;22.77;6.82;;;20.60;99.90;;;;;;5000210;28;20054;-65
2022/05/14 13:18:33;;;;;;;19.20;5.40;;;20.70;99.90;;;;;;4988705;28;20050;-65
2022/05/14 13:21:04;;;;;;;33.20;7.57;;;20.90;98.70;;;;;;4999142;28;20049;-65
2022/05/14 13:23:31;;;;;;;20.17;6.35;;;20.90;99.50;;;;;;5001338;28;20050;-65